Time;durP1;ratioP1;P1;durP2;ratioP2;P2;SDS_P1;SDS_P2;PMS_P1;PMS_P2;Temp;Humidity;BMP_temperature;BMP_pressure;BME280_temperature;BME280_humidity;BME280_pressure;Samples;Min_cycle;Max_cycle;Signal;HPM_P1;HPM_P2
2021/01/31 00:02:10;;;;;;;5.88;2.55;;;19.50;46.30;;;;;;5063675;28;20040;-66
2021/01/31 00:04:36;;;;;;;4.13;2.35;;;19.50;46.10;;;;;;5064042;28;20033;-65
2021/01/31 00:07:01;;;;;;;3.75;2.33;;;19.50;46.10;;;;;;5062957;28;20124;-63
2021/01/31 00:09:27;;;;;;;8.93;2.78;;;19.60;46.00;;;;;;5058237;28;20527;-64
2021/01/31 00:11:52;;;;;;;3.55;2.90;;;19.60;46.10;;;;;;5063227;28;20032;-64
2021/01/31 00:14:18;;;;;;;5.00;2.80;;;19.60;46.00;;;;;;5063138;28;20120;-64
2021/01/31 00:16:43;;;;;;;4.82;2.95;;;19.60;45.90;;;;;;5062991;28;20406;-64
2021/01/31 00:19:09;;;;;;;7.03;2.85;;;19.60;45.90;;;;;;5063972;28;20079;-62
2021/01/31 00:21:34;;;;;;;3.38;2.67;;;19.60;45.90;;;;;;5063176;28;20032;-64
2021/01/31 00:24:00;;;;;;;4.13;2.47;;;19.70;45.80;;;;;;5062321;28;20036;-63
2021/01/31 00:26:25;;;;;;;4.30;2.50;;;19.60;45.70;;;;;;5063282;28;20082;-65
2021/01/31 00:28:51;;;;;;;4.82;2.58;;;19.60;45.70;;;;;;5063583;28;20056;-62
2021/01/31 00:31:16;;;;;;;3.83;2.58;;;19.60;46.30;;;;;;5063025;28;20023;-65
2021/01/31 00:33:42;;;;;;;3.72;2.40;;;19.60;45.70;;;;;;5063678;28;20040;-64
2021/01/31 00:36:08;;;;;;;3.63;2.70;;;19.60;45.70;;;;;;5062943;28;20037;-62
2021/01/31 00:38:34;;;;;;;4.60;2.70;;;19.60;45.70;;;;;;5063340;28;20041;-65
2021/01/31 00:40:59;;;;;;;3.63;2.60;;;19.60;45.60;;;;;;5063509;28;20048;-65
2021/01/31 00:43:25;;;;;;;4.03;2.10;;;19.60;45.60;;;;;;5062830;28;20411;-62
2021/01/31 00:45:52;;;;;;;3.30;2.55;;;19.60;45.50;;;;;;5062807;28;20036;-63
2021/01/31 00:48:18;;;;;;;4.80;2.88;;;19.60;45.60;;;;;;5044957;28;20441;-65
2021/01/31 00:50:43;;;;;;;4.10;2.65;;;19.50;45.50;;;;;;5063517;28;20044;-64
2021/01/31 00:53:09;;;;;;;4.50;2.60;;;19.50;45.50;;;;;;5062422;28;20452;-65
2021/01/31 00:55:35;;;;;;;2.78;2.45;;;19.50;45.50;;;;;;5062942;28;20044;-64
2021/01/31 00:58:00;;;;;;;5.30;2.53;;;19.50;45.60;;;;;;5062857;28;20033;-64
2021/01/31 01:00:28;;;;;;;4.22;2.50;;;19.50;45.50;;;;;;5062322;28;20041;-63
2021/01/31 01:02:53;;;;;;;2.88;2.50;;;19.50;45.50;;;;;;5063228;28;20024;-64
2021/01/31 01:05:25;;;;;;;3.00;2.67;;;19.40;45.50;;;;;;5062855;28;20108;-64
2021/01/31 01:07:50;;;;;;;3.25;2.45;;;19.40;45.60;;;;;;5062827;28;20032;-64
2021/01/31 01:10:18;;;;;;;2.67;2.42;;;19.40;45.40;;;;;;5062550;28;20040;-64
2021/01/31 01:12:43;;;;;;;4.78;2.80;;;19.40;45.50;;;;;;5063195;28;20036;-62
2021/01/31 01:15:09;;;;;;;3.55;2.47;;;19.40;45.50;;;;;;5063254;28;20028;-63
2021/01/31 01:17:35;;;;;;;4.05;2.75;;;19.40;45.50;;;;;;5062860;28;20694;-64
2021/01/31 01:20:01;;;;;;;3.65;3.10;;;19.40;45.50;;;;;;5064993;28;20067;-62
2021/01/31 01:22:26;;;;;;;4.18;2.63;;;19.30;45.40;;;;;;5048648;28;20040;-64
2021/01/31 01:24:54;;;;;;;4.22;2.60;;;19.30;45.40;;;;;;5066286;28;20063;-62
2021/01/31 01:27:21;;;;;;;2.70;2.42;;;19.40;45.50;;;;;;5066044;28;20048;-64
2021/01/31 01:29:46;;;;;;;3.58;2.40;;;19.30;45.40;;;;;;5066607;28;20419;-64
2021/01/31 01:32:12;;;;;;;3.47;3.10;;;19.30;45.40;;;;;;5048328;28;20036;-63
2021/01/31 01:34:37;;;;;;;5.05;2.95;;;19.30;45.30;;;;;;5065911;28;20048;-65
2021/01/31 01:37:03;;;;;;;5.78;3.03;;;19.30;45.30;;;;;;5065872;28;20032;-64
2021/01/31 01:39:28;;;;;;;3.20;2.90;;;19.30;45.30;;;;;;5065711;28;20037;-65
2021/01/31 01:41:54;;;;;;;3.72;2.70;;;19.30;45.30;;;;;;5065185;28;20695;-63
2021/01/31 01:44:19;;;;;;;4.45;2.55;;;19.30;45.40;;;;;;5065066;28;20033;-65
2021/01/31 01:46:50;;;;;;;3.70;3.00;;;19.20;45.30;;;;;;5066704;28;20028;-65
2021/01/31 01:49:20;;;;;;;2.75;2.33;;;19.30;45.30;;;;;;5048903;28;20025;-64
2021/01/31 01:51:55;;;;;;;3.28;2.67;;;19.20;45.30;;;;;;5065863;28;20189;-66
2021/01/31 01:54:27;;;;;;;2.60;2.33;;;19.20;45.30;;;;;;5047408;28;20135;-64
2021/01/31 01:56:56;;;;;;;3.00;2.70;;;19.20;45.30;;;;;;5031435;28;20044;-63
2021/01/31 01:59:22;;;;;;;2.83;2.42;;;19.20;45.30;;;;;;5047707;28;20418;-62
2021/01/31 02:01:56;;;;;;;4.22;2.63;;;19.20;45.30;;;;;;5048401;28;20021;-64
2021/01/31 02:04:21;;;;;;;5.15;3.08;;;19.20;45.20;;;;;;5046868;28;20503;-64
2021/01/31 02:06:47;;;;;;;2.60;2.38;;;19.20;45.20;;;;;;5031390;28;20033;-64
2021/01/31 02:09:12;;;;;;;3.08;2.42;;;19.20;45.20;;;;;;5030991;28;20479;-63
2021/01/31 02:11:38;;;;;;;2.88;2.50;;;19.20;45.30;;;;;;5064801;28;20043;-65
2021/01/31 02:14:07;;;;;;;2.88;2.58;;;19.20;45.20;;;;;;5027800;28;20029;-65
2021/01/31 02:16:55;;;;;;;3.28;2.53;;;19.10;45.10;;;;;;5028775;28;20636;-63
2021/01/31 02:19:51;;;;;;;3.05;2.60;;;19.10;45.20;;;;;;5044827;28;20563;-64
2021/01/31 02:22:37;;;;;;;4.20;3.22;;;19.10;45.20;;;;;;5039206;28;20032;-64
2021/01/31 02:25:27;;;;;;;2.92;2.65;;;19.00;45.20;;;;;;5047828;28;20115;-63
2021/01/31 02:28:17;;;;;;;4.20;2.70;;;19.00;45.10;;;;;;5059579;28;20025;-63
2021/01/31 02:31:25;;;;;;;3.17;2.60;;;19.00;45.20;;;;;;5064704;28;20037;-63
2021/01/31 02:34:28;;;;;;;3.63;3.33;;;18.90;45.10;;;;;;5029368;28;21747;-64
2021/01/31 02:37:06;;;;;;;2.72;2.50;;;18.90;45.10;;;;;;5064246;28;20036;-64
2021/01/31 02:39:46;;;;;;;7.28;2.83;;;18.90;45.00;;;;;;5024693;28;20512;-65
2021/01/31 02:42:17;;;;;;;2.92;2.63;;;18.80;45.00;;;;;;5064641;28;20087;-62
2021/01/31 02:44:47;;;;;;;4.97;3.08;;;18.80;45.00;;;;;;5056730;28;20024;-64
2021/01/31 02:47:15;;;;;;;3.30;3.00;;;18.80;44.90;;;;;;5046906;28;20052;-62
2021/01/31 02:49:52;;;;;;;3.22;2.95;;;18.80;44.90;;;;;;5046946;28;20036;-63
2021/01/31 02:52:38;;;;;;;4.18;3.22;;;18.80;44.90;;;;;;5047062;28;20040;-64
2021/01/31 02:55:36;;;;;;;3.60;3.30;;;18.80;44.90;;;;;;5045980;28;20032;-62
2021/01/31 02:58:10;;;;;;;4.28;2.92;;;18.70;44.90;;;;;;5028900;28;21036;-63
2021/01/31 03:00:49;;;;;;;3.95;3.53;;;18.70;44.70;;;;;;5030545;28;20045;-64
2021/01/31 03:03:42;;;;;;;3.22;2.95;;;18.70;44.70;;;;;;5048253;28;20043;-64
2021/01/31 03:06:13;;;;;;;4.00;3.60;;;18.70;44.70;;;;;;5046116;28;20033;-63
2021/01/31 03:08:47;;;;;;;3.47;3.17;;;18.70;44.80;;;;;;5030066;28;20462;-62
2021/01/31 03:11:40;;;;;;;3.35;2.97;;;18.60;44.70;;;;;;5046249;28;20032;-62
2021/01/31 03:14:12;;;;;;;4.35;3.20;;;18.60;44.80;;;;;;5043054;28;21547;-65
2021/01/31 03:16:40;;;;;;;3.45;2.90;;;18.60;44.70;;;;;;5045753;28;20044;-65
2021/01/31 03:19:11;;;;;;;3.50;3.20;;;18.50;44.70;;;;;;5045542;28;20036;-65
2021/01/31 03:21:37;;;;;;;3.88;3.28;;;18.50;44.80;;;;;;5030221;28;20024;-62
2021/01/31 03:24:23;;;;;;;3.63;3.33;;;18.50;44.70;;;;;;5044809;28;20028;-64
2021/01/31 03:26:56;;;;;;;3.97;3.58;;;18.40;44.70;;;;;;5063004;28;20294;-63
2021/01/31 03:29:21;;;;;;;4.28;3.03;;;18.40;44.80;;;;;;5046358;28;20036;-65
2021/01/31 03:31:53;;;;;;;3.70;2.95;;;18.40;44.80;;;;;;5046008;28;20044;-63
2021/01/31 03:34:22;;;;;;;3.90;3.47;;;18.50;44.80;;;;;;5045613;28;20047;-65
2021/01/31 03:36:51;;;;;;;3.90;3.50;;;18.50;44.80;;;;;;5045748;28;20086;-62
2021/01/31 03:39:17;;;;;;;3.22;2.85;;;18.50;44.80;;;;;;5045063;28;20032;-64
2021/01/31 03:41:43;;;;;;;3.22;2.92;;;18.60;44.80;;;;;;5028673;28;20082;-65
2021/01/31 03:44:09;;;;;;;3.65;3.05;;;18.70;44.70;;;;;;5045993;28;20051;-64
2021/01/31 03:46:56;;;;;;;3.88;3.40;;;18.70;44.60;;;;;;5045726;28;20029;-64
2021/01/31 03:49:32;;;;;;;4.15;3.50;;;18.80;44.50;;;;;;5045390;28;20533;-64
2021/01/31 03:51:58;;;;;;;3.25;2.88;;;19.00;44.40;;;;;;5030584;28;20131;-63
2021/01/31 03:54:23;;;;;;;3.17;2.97;;;19.00;44.90;;;;;;5045171;28;20179;-64
2021/01/31 03:56:59;;;;;;;4.07;3.53;;;19.10;44.20;;;;;;5063829;28;20035;-63
2021/01/31 03:59:34;;;;;;;3.42;2.92;;;19.20;44.10;;;;;;5045399;28;20641;-62
2021/01/31 04:02:00;;;;;;;4.57;3.03;;;19.30;44.00;;;;;;5045069;28;20037;-65
2021/01/31 04:04:37;;;;;;;3.90;3.05;;;19.30;43.90;;;;;;5046034;28;20481;-65
2021/01/31 04:07:06;;;;;;;3.67;3.35;;;19.40;43.90;;;;;;5045228;28;20594;-64
2021/01/31 04:09:33;;;;;;;3.15;2.90;;;19.50;43.80;;;;;;5062905;28;20043;-64
2021/01/31 04:12:09;;;;;;;3.70;3.25;;;19.50;43.70;;;;;;5027285;28;20037;-65
2021/01/31 04:14:38;;;;;;;3.90;3.13;;;19.60;43.70;;;;;;5028547;28;20487;-65
2021/01/31 04:17:03;;;;;;;3.33;2.88;;;19.60;43.60;;;;;;5034805;28;20514;-61
2021/01/31 04:19:29;;;;;;;3.22;2.92;;;19.70;43.50;;;;;;5063020;28;20029;-64
2021/01/31 04:21:54;;;;;;;3.13;2.80;;;19.70;43.50;;;;;;5063082;28;20032;-64
2021/01/31 04:24:20;;;;;;;3.55;3.10;;;19.70;43.30;;;;;;5063278;28;20044;-64
2021/01/31 04:26:45;;;;;;;3.95;3.28;;;19.80;43.30;;;;;;5062930;28;20028;-65
2021/01/31 04:29:11;;;;;;;4.80;3.20;;;19.80;43.30;;;;;;5063347;28;20021;-63
2021/01/31 04:31:36;;;;;;;3.40;3.10;;;19.90;43.20;;;;;;5063403;28;20016;-63
2021/01/31 04:34:02;;;;;;;4.15;3.63;;;19.90;43.10;;;;;;5064526;28;20035;-63
2021/01/31 04:36:28;;;;;;;3.97;3.60;;;19.90;43.10;;;;;;5062208;28;20032;-63
2021/01/31 04:38:53;;;;;;;3.20;2.90;;;19.90;43.10;;;;;;5062446;28;20889;-64
2021/01/31 04:41:19;;;;;;;3.65;3.35;;;19.90;43.00;;;;;;5062955;28;20040;-65
2021/01/31 04:43:44;;;;;;;3.88;3.17;;;19.90;42.80;;;;;;5045463;28;20039;-63
2021/01/31 04:46:14;;;;;;;4.35;3.67;;;19.90;42.90;;;;;;5044634;28;20392;-63
2021/01/31 04:48:57;;;;;;;4.35;3.95;;;19.90;43.00;;;;;;5028992;28;20693;-64
2021/01/31 04:51:34;;;;;;;3.40;3.10;;;19.90;42.90;;;;;;5062546;28;20050;-63
2021/01/31 04:54:28;;;;;;;4.00;3.30;;;19.90;42.70;;;;;;5045878;28;20062;-62
2021/01/31 04:57:00;;;;;;;4.35;3.22;;;19.90;42.80;;;;;;5022538;28;21565;-64
2021/01/31 04:59:32;;;;;;;4.15;3.75;;;19.80;42.60;;;;;;5066078;28;20068;-64
2021/01/31 05:02:03;;;;;;;3.47;3.17;;;19.80;42.70;;;;;;5049988;28;20035;-63
2021/01/31 05:04:28;;;;;;;4.20;3.58;;;19.80;42.60;;;;;;5066624;28;20063;-61
2021/01/31 05:06:56;;;;;;;3.60;3.30;;;19.80;42.70;;;;;;5024373;28;20025;-61
2021/01/31 05:09:23;;;;;;;4.13;3.00;;;19.70;42.60;;;;;;5049346;28;20082;-62
2021/01/31 05:12:03;;;;;;;4.10;3.70;;;19.70;42.50;;;;;;5066833;28;20039;-60
2021/01/31 05:14:41;;;;;;;4.07;3.30;;;19.70;42.60;;;;;;5067232;28;20032;-63
2021/01/31 05:17:07;;;;;;;4.20;3.80;;;19.70;42.50;;;;;;5048263;28;20368;-64
2021/01/31 05:19:32;;;;;;;4.50;3.72;;;19.70;42.40;;;;;;5067355;28;20043;-62
2021/01/31 05:21:58;;;;;;;3.60;3.25;;;19.70;42.40;;;;;;5031902;28;20032;-61
2021/01/31 05:24:23;;;;;;;3.75;2.92;;;19.60;42.40;;;;;;5048500;28;20360;-65
2021/01/31 05:26:53;;;;;;;3.40;3.10;;;19.60;42.40;;;;;;5048214;28;20522;-62
2021/01/31 05:29:27;;;;;;;3.45;3.00;;;19.60;43.10;;;;;;5048550;28;20041;-64
2021/01/31 05:32:02;;;;;;;4.60;3.47;;;19.60;42.40;;;;;;5066738;28;20036;-61
2021/01/31 05:34:41;;;;;;;3.33;3.03;;;19.50;42.50;;;;;;5049314;28;20127;-61
2021/01/31 05:37:18;;;;;;;6.18;3.40;;;19.50;42.50;;;;;;5065754;28;20097;-63
2021/01/31 05:39:46;;;;;;;3.20;2.90;;;19.50;42.30;;;;;;5064846;28;20609;-63
2021/01/31 05:42:32;;;;;;;3.75;3.22;;;19.50;42.50;;;;;;5066095;28;20028;-63
2021/01/31 05:45:10;;;;;;;3.83;3.22;;;19.40;42.50;;;;;;5048067;28;20447;-64
2021/01/31 05:47:41;;;;;;;3.50;3.20;;;19.40;42.50;;;;;;5041358;28;20055;-63
2021/01/31 05:50:29;;;;;;;4.18;3.78;;;19.40;42.50;;;;;;5048174;28;20132;-64
2021/01/31 05:52:55;;;;;;;5.32;3.67;;;19.40;42.50;;;;;;5060280;28;20621;-62
2021/01/31 05:55:29;;;;;;;4.32;3.15;;;19.40;42.50;;;;;;5065956;28;20036;-63
2021/01/31 05:58:29;;;;;;;3.42;3.05;;;19.40;42.60;;;;;;5048850;28;20032;-64
2021/01/31 06:01:05;;;;;;;4.00;3.35;;;19.40;42.70;;;;;;5059478;28;21635;-63
2021/01/31 06:03:30;;;;;;;;;;;19.40;42.70;;;;;;5065614;28;20055;-63
2021/01/31 06:06:16;;;;;;;4.53;3.25;;;19.30;42.60;;;;;;5065188;28;20320;-63
2021/01/31 06:08:44;;;;;;;3.75;2.92;;;19.30;42.70;;;;;;5047020;28;21229;-62
2021/01/31 06:11:18;;;;;;;3.45;3.15;;;19.30;42.70;;;;;;5048243;28;20098;-60
2021/01/31 06:13:43;;;;;;;3.15;2.72;;;19.40;42.70;;;;;;5047509;28;20403;-64
2021/01/31 06:16:17;;;;;;;3.65;2.95;;;19.30;42.70;;;;;;5047583;28;20081;-64
2021/01/31 06:18:45;;;;;;;4.38;3.17;;;19.30;42.70;;;;;;5023196;28;22048;-63
2021/01/31 06:21:16;;;;;;;3.60;3.20;;;19.30;42.90;;;;;;5028748;28;20052;-63
2021/01/31 06:23:42;;;;;;;4.05;2.92;;;19.30;42.80;;;;;;5039837;28;20493;-64
2021/01/31 06:26:19;;;;;;;3.33;2.65;;;19.30;42.90;;;;;;5064996;28;20028;-63
2021/01/31 06:28:45;;;;;;;4.25;3.28;;;19.30;42.80;;;;;;5041262;28;20491;-63
2021/01/31 06:31:24;;;;;;;4.00;2.65;;;19.30;43.20;;;;;;5031583;28;20086;-62
2021/01/31 06:33:50;;;;;;;3.65;2.88;;;19.30;42.90;;;;;;5046280;28;20725;-64
2021/01/31 06:36:26;;;;;;;2.70;2.50;;;19.30;42.90;;;;;;5064598;28;20032;-61
2021/01/31 06:39:22;;;;;;;3.30;3.00;;;19.30;42.90;;;;;;5047056;28;20032;-64
2021/01/31 06:41:51;;;;;;;;;;;19.30;42.90;;;;;;5029414;28;20056;-64
2021/01/31 06:44:38;;;;;;;4.80;3.03;;;19.30;42.90;;;;;;5064515;28;19917;-63
2021/01/31 06:47:16;;;;;;;3.95;2.95;;;19.30;42.90;;;;;;5047677;28;20150;-64
2021/01/31 06:49:52;;;;;;;3.00;2.70;;;19.30;42.90;;;;;;5063960;28;20506;-62
2021/01/31 06:52:42;;;;;;;4.18;3.03;;;19.30;43.00;;;;;;5047225;28;20109;-62
2021/01/31 06:55:20;;;;;;;3.78;3.38;;;19.30;42.90;;;;;;5030941;28;20047;-63
2021/01/31 06:58:12;;;;;;;3.88;3.08;;;19.30;42.90;;;;;;5047579;28;20043;-61
2021/01/31 07:01:07;;;;;;;3.17;2.88;;;19.30;43.00;;;;;;5042831;28;20040;-62
2021/01/31 07:04:06;;;;;;;3.25;2.90;;;19.20;42.90;;;;;;5048581;28;20055;-61
2021/01/31 07:06:56;;;;;;;2.85;2.53;;;19.30;42.90;;;;;;5049168;28;20041;-63
2021/01/31 07:09:52;;;;;;;2.90;2.70;;;19.20;42.90;;;;;;5064322;28;20040;-62
2021/01/31 07:12:33;;;;;;;2.83;2.55;;;19.20;42.90;;;;;;5025512;28;20028;-62
2021/01/31 07:15:15;;;;;;;4.00;2.80;;;19.30;43.00;;;;;;5030814;28;20040;-62
2021/01/31 07:17:51;;;;;;;3.17;2.88;;;19.30;42.90;;;;;;5035040;28;20072;-63
2021/01/31 07:20:20;;;;;;;;;;;19.30;43.00;;;;;;5042958;28;20451;-64
2021/01/31 07:22:52;;;;;;;2.83;2.63;;;19.30;42.90;;;;;;5038596;28;19912;-65
2021/01/31 07:25:36;;;;;;;3.97;2.70;;;19.30;43.50;;;;;;5046488;28;20107;-62
2021/01/31 07:28:11;;;;;;;3.50;2.88;;;19.20;42.90;;;;;;5063222;28;20469;-63
2021/01/31 07:30:55;;;;;;;3.43;2.87;;;19.30;42.90;;;;;;5046179;28;20044;-62
2021/01/31 07:33:24;;;;;;;2.97;2.67;;;19.30;42.90;;;;;;5045581;28;20524;-60
2021/01/31 07:36:06;;;;;;;2.88;2.65;;;19.30;42.90;;;;;;5045940;28;20048;-64
2021/01/31 07:38:34;;;;;;;3.15;2.72;;;19.30;42.90;;;;;;5046301;28;20036;-63
2021/01/31 07:40:59;;;;;;;2.72;2.53;;;19.30;42.80;;;;;;5045942;28;20047;-64
2021/01/31 07:43:26;;;;;;;3.00;2.80;;;19.30;42.80;;;;;;5063334;28;20024;-63
2021/01/31 07:46:06;;;;;;;2.95;2.60;;;19.30;42.90;;;;;;5029109;28;20507;-64
2021/01/31 07:48:43;;;;;;;2.50;2.30;;;19.30;43.40;;;;;;5039192;28;20033;-62
2021/01/31 07:51:08;;;;;;;3.78;2.78;;;19.30;42.70;;;;;;5064074;28;20048;-64
2021/01/31 07:53:36;;;;;;;2.83;2.63;;;19.30;42.70;;;;;;5064513;28;20048;-63
2021/01/31 07:56:26;;;;;;;3.33;2.95;;;19.30;42.70;;;;;;5029448;28;20032;-63
2021/01/31 07:58:55;;;;;;;3.70;2.50;;;19.30;42.70;;;;;;5063503;28;20028;-61
2021/01/31 08:01:39;;;;;;;3.35;2.90;;;19.30;42.70;;;;;;5064111;28;20503;-61
2021/01/31 08:04:19;;;;;;;3.38;2.70;;;19.40;42.70;;;;;;5063795;28;20037;-62
2021/01/31 08:06:48;;;;;;;3.15;2.83;;;19.30;42.60;;;;;;5064610;28;20028;-65
2021/01/31 08:09:26;;;;;;;4.28;3.45;;;19.40;42.70;;;;;;5046410;28;20024;-66
2021/01/31 08:12:00;;;;;;;3.70;2.50;;;19.40;42.70;;;;;;5063987;28;20031;-65
2021/01/31 08:15:02;;;;;;;5.72;2.58;;;19.40;42.70;;;;;;5045555;28;20032;-62
2021/01/31 08:17:48;;;;;;;3.40;2.58;;;19.40;42.80;;;;;;5063989;28;20107;-65
2021/01/31 08:20:29;;;;;;;7.25;3.00;;;19.40;42.90;;;;;;5046276;28;20068;-64
2021/01/31 08:23:11;;;;;;;3.85;3.10;;;19.40;43.00;;;;;;5063986;28;20108;-64
2021/01/31 08:25:56;;;;;;;4.20;2.78;;;19.40;43.10;;;;;;5063557;28;20028;-62
2021/01/31 08:28:31;;;;;;;5.38;3.35;;;19.40;43.20;;;;;;5065572;28;20029;-65
2021/01/31 08:31:05;;;;;;;2.95;2.58;;;19.40;43.30;;;;;;5067823;28;20033;-63
2021/01/31 08:33:40;;;;;;;3.20;2.55;;;19.40;43.30;;;;;;5068187;28;20063;-64
2021/01/31 08:36:08;;;;;;;3.72;2.92;;;19.40;43.40;;;;;;5050406;28;20542;-65
2021/01/31 08:38:35;;;;;;;3.05;2.70;;;19.40;43.40;;;;;;5050504;28;20048;-64
2021/01/31 08:41:01;;;;;;;4.32;2.90;;;19.40;43.50;;;;;;5050644;28;20033;-66
2021/01/31 08:43:30;;;;;;;5.38;3.20;;;19.40;43.40;;;;;;5067289;28;20035;-63
2021/01/31 08:46:07;;;;;;;5.25;3.67;;;19.40;43.50;;;;;;5067400;28;20047;-65
2021/01/31 08:48:32;;;;;;;3.13;2.55;;;19.40;43.50;;;;;;5049930;28;20032;-65
2021/01/31 08:51:18;;;;;;;3.40;3.10;;;19.40;43.60;;;;;;5067924;28;20483;-66
2021/01/31 08:53:44;;;;;;;4.00;3.15;;;19.40;43.60;;;;;;5050476;28;20044;-64
2021/01/31 08:56:20;;;;;;;6.72;2.88;;;19.40;43.60;;;;;;5067191;28;20043;-66
2021/01/31 08:58:45;;;;;;;5.78;2.95;;;19.40;43.60;;;;;;5066898;28;20104;-66
2021/01/31 09:01:11;;;;;;;4.28;3.38;;;19.40;43.60;;;;;;5067599;28;20483;-67
2021/01/31 09:03:39;;;;;;;4.32;3.00;;;19.40;43.60;;;;;;5028188;28;20028;-66
2021/01/31 09:06:05;;;;;;;3.10;2.75;;;19.40;43.60;;;;;;5049406;28;20530;-67
2021/01/31 09:08:30;;;;;;;4.55;3.30;;;19.30;43.50;;;;;;5067229;28;20032;-64
2021/01/31 09:10:56;;;;;;;5.00;2.97;;;19.40;43.50;;;;;;5049481;28;20037;-65
2021/01/31 09:13:31;;;;;;;3.72;3.00;;;19.30;43.50;;;;;;5066978;28;20578;-66
2021/01/31 09:16:18;;;;;;;4.80;2.85;;;19.40;43.60;;;;;;5067049;28;20029;-66
2021/01/31 09:18:43;;;;;;;3.45;2.45;;;19.40;43.70;;;;;;5067102;28;20539;-65
2021/01/31 09:21:38;;;;;;;4.72;3.50;;;19.40;43.70;;;;;;5049473;28;20132;-64
2021/01/31 09:24:05;;;;;;;3.78;2.90;;;19.40;43.70;;;;;;5045234;28;20052;-67
2021/01/31 09:26:30;;;;;;;3.33;3.03;;;19.40;43.70;;;;;;5031956;28;20082;-66
2021/01/31 09:28:57;;;;;;;3.25;2.85;;;19.40;43.60;;;;;;5049403;28;20040;-65
2021/01/31 09:31:23;;;;;;;3.90;3.15;;;19.40;43.60;;;;;;5049469;28;20115;-64
2021/01/31 09:33:53;;;;;;;4.25;3.00;;;19.40;43.70;;;;;;5049026;28;20025;-62
2021/01/31 09:36:18;;;;;;;3.28;2.83;;;19.50;43.70;;;;;;5033284;28;20431;-66
2021/01/31 09:38:47;;;;;;;4.13;2.55;;;19.50;43.70;;;;;;5066434;28;20033;-66
2021/01/31 09:41:13;;;;;;;5.00;3.53;;;19.50;43.60;;;;;;5047639;28;20816;-65
2021/01/31 09:43:39;;;;;;;7.50;3.58;;;19.50;43.70;;;;;;5048901;28;20273;-66
2021/01/31 09:46:07;;;;;;;4.32;3.47;;;19.50;43.70;;;;;;5047862;28;20691;-65
2021/01/31 09:48:33;;;;;;;4.53;3.47;;;19.50;43.60;;;;;;5049047;28;20515;-65
2021/01/31 09:51:05;;;;;;;7.78;3.80;;;19.50;43.60;;;;;;5048863;28;20028;-66
2021/01/31 09:53:36;;;;;;;8.52;2.95;;;19.50;43.50;;;;;;5048891;28;20403;-65
2021/01/31 09:56:03;;;;;;;5.38;3.35;;;19.50;43.60;;;;;;5065379;28;20047;-66
2021/01/31 09:58:35;;;;;;;6.45;3.58;;;19.40;43.50;;;;;;5031988;28;20196;-66
2021/01/31 10:01:23;;;;;;;5.07;3.00;;;19.40;43.50;;;;;;5015367;28;20036;-62
2021/01/31 10:03:59;;;;;;;4.50;3.63;;;19.40;43.60;;;;;;5048665;28;20040;-65
2021/01/31 10:06:24;;;;;;;9.60;3.60;;;19.40;44.20;;;;;;5032390;28;20095;-64
2021/01/31 10:08:58;;;;;;;5.80;3.78;;;19.40;43.50;;;;;;5031871;28;20123;-64
2021/01/31 10:11:33;;;;;;;6.72;3.47;;;19.30;43.50;;;;;;5048276;28;20111;-66
2021/01/31 10:13:59;;;;;;;8.98;4.47;;;19.30;43.50;;;;;;5066052;28;20638;-63
2021/01/31 10:16:30;;;;;;;23.45;11.80;;;19.20;43.50;;;;;;5065554;28;20044;-66
2021/01/31 10:19:12;;;;;;;45.80;22.23;;;19.20;43.60;;;;;;5031531;28;20716;-66
2021/01/31 10:21:40;;;;;;;48.55;25.35;;;19.20;43.60;;;;;;5064912;28;20029;-65
2021/01/31 10:24:34;;;;;;;55.97;29.35;;;19.20;43.70;;;;;;5046910;28;20856;-65
2021/01/31 10:27:07;;;;;;;56.72;29.67;;;19.10;43.70;;;;;;5026688;28;20032;-65
2021/01/31 10:29:32;;;;;;;61.10;31.23;;;19.10;43.70;;;;;;5065000;28;20029;-66
2021/01/31 10:32:36;;;;;;;61.80;30.23;;;19.10;43.70;;;;;;5065751;28;20032;-64
2021/01/31 10:35:17;;;;;;;60.22;30.42;;;19.00;43.80;;;;;;5064744;28;20376;-65
2021/01/31 10:37:42;;;;;;;58.42;27.67;;;19.00;43.70;;;;;;5048221;28;20044;-65
2021/01/31 10:40:09;;;;;;;56.00;27.98;;;19.00;43.70;;;;;;5063532;28;20033;-65
2021/01/31 10:42:34;;;;;;;55.08;28.30;;;19.00;43.70;;;;;;5064477;28;20729;-65
2021/01/31 10:45:11;;;;;;;52.80;26.40;;;19.00;43.60;;;;;;5065423;28;20024;-64
2021/01/31 10:47:36;;;;;;;51.75;25.23;;;19.00;43.60;;;;;;5063227;28;20189;-65
2021/01/31 10:50:03;;;;;;;51.38;24.55;;;19.00;43.60;;;;;;5064748;28;20024;-66
2021/01/31 10:52:28;;;;;;;53.05;25.30;;;19.00;43.50;;;;;;5062767;28;21037;-65
2021/01/31 10:54:54;;;;;;;47.20;24.67;;;18.90;43.50;;;;;;5047182;28;20039;-66
2021/01/31 10:57:19;;;;;;;42.88;22.83;;;18.90;43.50;;;;;;5064347;28;20032;-65
2021/01/31 10:59:45;;;;;;;42.83;20.92;;;18.90;43.50;;;;;;5064634;28;20066;-65
2021/01/31 11:02:10;;;;;;;38.97;21.77;;;18.90;43.50;;;;;;5046731;28;20546;-64
2021/01/31 11:04:36;;;;;;;41.90;21.48;;;18.90;43.50;;;;;;5065284;28;20788;-65
2021/01/31 11:07:01;;;;;;;40.08;20.35;;;18.90;43.50;;;;;;5065265;28;20095;-64
2021/01/31 11:09:27;;;;;;;39.95;21.38;;;18.80;43.40;;;;;;5045994;28;20565;-65
2021/01/31 11:11:52;;;;;;;40.83;21.52;;;18.90;43.90;;;;;;5062522;28;20062;-65
2021/01/31 11:14:18;;;;;;;35.08;19.58;;;18.90;43.30;;;;;;5064621;28;20055;-63
2021/01/31 11:16:43;;;;;;;33.80;17.23;;;18.90;43.30;;;;;;5064685;28;20059;-63
2021/01/31 11:19:09;;;;;;;29.08;16.50;;;19.00;43.40;;;;;;5064888;28;20531;-64
2021/01/31 11:21:34;;;;;;;32.33;14.93;;;18.90;43.20;;;;;;5065018;28;20036;-65
2021/01/31 11:24:00;;;;;;;29.60;15.23;;;18.90;43.20;;;;;;5064294;28;20860;-64
2021/01/31 11:26:26;;;;;;;31.23;15.52;;;18.90;43.30;;;;;;5064233;28;20040;-64
2021/01/31 11:28:52;;;;;;;31.08;14.60;;;18.90;43.30;;;;;;5064550;28;20229;-65
2021/01/31 11:31:17;;;;;;;25.17;13.43;;;18.80;43.20;;;;;;5064550;28;20033;-64
2021/01/31 11:33:43;;;;;;;25.67;13.80;;;18.90;43.30;;;;;;5064496;28;20051;-64
2021/01/31 11:36:08;;;;;;;24.10;13.32;;;18.90;43.30;;;;;;5063581;28;20028;-65
2021/01/31 11:38:34;;;;;;;24.40;13.57;;;18.80;43.20;;;;;;5064211;28;20123;-65
2021/01/31 11:40:59;;;;;;;22.50;13.32;;;18.90;43.20;;;;;;5064435;28;20089;-66
2021/01/31 11:43:25;;;;;;;22.92;12.05;;;18.90;43.30;;;;;;5064061;28;20031;-65
2021/01/31 11:45:51;;;;;;;20.77;11.20;;;18.90;43.30;;;;;;5063859;28;20033;-65
2021/01/31 11:48:16;;;;;;;20.00;12.70;;;18.80;43.30;;;;;;5064531;28;20032;-64
2021/01/31 11:50:42;;;;;;;26.55;11.88;;;18.90;43.30;;;;;;5063719;28;20028;-64
2021/01/31 11:53:07;;;;;;;21.38;11.80;;;18.90;43.40;;;;;;5064279;28;20111;-63
2021/01/31 11:55:33;;;;;;;21.55;11.48;;;18.90;43.40;;;;;;5064076;28;20032;-64
2021/01/31 11:57:58;;;;;;;26.05;11.68;;;18.90;43.60;;;;;;5064261;28;20044;-63
2021/01/31 12:00:24;;;;;;;19.50;11.88;;;18.90;43.50;;;;;;5064003;28;20029;-62
2021/01/31 12:02:50;;;;;;;23.05;10.88;;;18.90;43.50;;;;;;5046024;28;20517;-65
2021/01/31 12:05:16;;;;;;;20.58;10.80;;;18.80;44.10;;;;;;5064033;28;20645;-65
2021/01/31 12:07:42;;;;;;;22.40;10.52;;;18.90;43.60;;;;;;5064012;28;20037;-65
2021/01/31 12:10:08;;;;;;;19.88;10.25;;;18.90;44.20;;;;;;5064575;28;20084;-63
2021/01/31 12:12:34;;;;;;;21.98;10.65;;;18.90;43.60;;;;;;5064025;28;20032;-64
2021/01/31 12:14:59;;;;;;;17.48;10.27;;;18.90;43.70;;;;;;5063844;28;20145;-64
2021/01/31 12:17:25;;;;;;;18.35;10.88;;;19.00;43.70;;;;;;5064032;28;20033;-63
2021/01/31 12:19:50;;;;;;;18.88;10.13;;;18.90;44.00;;;;;;5063241;28;20033;-63
2021/01/31 12:22:16;;;;;;;17.45;9.70;;;18.90;43.60;;;;;;5063993;28;20115;-65
2021/01/31 12:24:43;;;;;;;17.00;10.32;;;19.00;43.70;;;;;;5064042;28;20029;-64
2021/01/31 12:27:08;;;;;;;19.50;9.50;;;19.00;43.70;;;;;;5046349;28;20403;-63
2021/01/31 12:29:34;;;;;;;16.10;9.52;;;19.00;43.70;;;;;;5063322;28;20035;-64
2021/01/31 12:31:59;;;;;;;15.88;9.63;;;19.00;43.60;;;;;;5063915;28;20029;-65
2021/01/31 12:34:25;;;;;;;12.43;8.98;;;19.10;43.70;;;;;;5063463;28;20024;-65
2021/01/31 12:36:50;;;;;;;14.30;9.05;;;19.10;43.60;;;;;;5063658;28;20024;-64
2021/01/31 12:39:16;;;;;;;14.25;9.00;;;19.10;43.60;;;;;;5063854;28;20021;-65
2021/01/31 12:41:42;;;;;;;12.00;8.70;;;19.10;43.60;;;;;;5063785;28;20384;-67
2021/01/31 12:44:07;;;;;;;14.07;9.18;;;19.10;43.60;;;;;;5064132;28;20029;-64
2021/01/31 12:46:33;;;;;;;17.67;9.05;;;19.10;43.60;;;;;;5062977;28;20035;-66
2021/01/31 12:48:58;;;;;;;13.73;9.02;;;19.20;43.60;;;;;;5056904;28;20029;-64
2021/01/31 12:51:26;;;;;;;14.70;8.48;;;19.20;43.60;;;;;;5043976;28;20033;-64
2021/01/31 12:53:51;;;;;;;18.08;9.80;;;19.30;43.60;;;;;;5043802;28;20127;-64
2021/01/31 12:56:16;;;;;;;12.68;9.00;;;19.20;43.50;;;;;;5043387;28;20607;-66
2021/01/31 12:58:42;;;;;;;14.98;9.45;;;19.20;43.50;;;;;;5044542;28;20033;-66
2021/01/31 13:01:07;;;;;;;16.50;10.10;;;19.30;43.60;;;;;;5044213;28;20032;-66
2021/01/31 13:03:34;;;;;;;17.10;9.63;;;19.30;43.50;;;;;;5043290;28;20104;-64
2021/01/31 13:05:59;;;;;;;15.82;9.98;;;19.30;43.50;;;;;;5043786;28;20037;-64